Time;durP1;ratioP1;P1;durP2;ratioP2;P2;SDS_P1;SDS_P2;PMS_P1;PMS_P2;Temp;Humidity;BMP_temperature;BMP_pressure;BME280_temperature;BME280_humidity;BME280_pressure;Samples;Min_cycle;Max_cycle;Signal;HPM_P1;HPM_P2
2023/05/30 00:02:03;;;;;;;8.00;5.63;;;17.80;87.00;;;;;;5050113;28;20479;-61
2023/05/30 00:04:30;;;;;;;9.90;6.70;;;17.30;87.10;;;;;;5060333;28;20476;-61
2023/05/30 00:06:57;;;;;;;13.63;6.57;;;17.70;87.60;;;;;;5066857;28;20475;-61
2023/05/30 00:09:25;;;;;;;12.50;6.00;;;17.70;87.70;;;;;;5027101;28;20910;-61
2023/05/30 00:11:54;;;;;;;8.33;5.90;;;17.70;87.70;;;;;;5073891;28;20490;-60
2023/05/30 00:14:21;;;;;;;11.13;5.97;;;17.60;87.60;;;;;;5067785;28;20832;-61
2023/05/30 00:16:48;;;;;;;12.93;5.63;;;17.60;87.60;;;;;;5067529;28;21015;-61
2023/05/30 00:19:15;;;;;;;9.43;5.30;;;17.60;87.70;;;;;;5068875;28;20479;-61
2023/05/30 00:21:42;;;;;;;7.60;5.40;;;17.60;87.60;;;;;;5055227;28;20493;-60
2023/05/30 00:24:09;;;;;;;13.63;6.77;;;17.60;87.80;;;;;;5057111;28;20553;-61
2023/05/30 00:26:37;;;;;;;12.03;5.20;;;17.60;87.70;;;;;;5061299;28;20514;-61
2023/05/30 00:29:04;;;;;;;9.40;5.00;;;17.60;88.00;;;;;;5065048;28;20854;-61
2023/05/30 00:31:31;;;;;;;11.83;5.47;;;17.50;88.00;;;;;;5062943;28;20870;-61
2023/05/30 00:33:58;;;;;;;9.20;5.30;;;17.50;88.10;;;;;;5053216;28;20468;-61
2023/05/30 00:36:25;;;;;;;8.90;5.00;;;17.40;87.90;;;;;;5060445;28;20486;-60
2023/05/30 00:38:51;;;;;;;8.27;4.97;;;17.40;88.00;;;;;;5068202;28;20484;-60
2023/05/30 00:41:18;;;;;;;9.00;5.07;;;17.40;88.00;;;;;;5065100;28;20475;-61
2023/05/30 00:43:46;;;;;;;6.13;5.17;;;17.40;88.00;;;;;;5066793;28;20468;-61
2023/05/30 00:46:15;;;;;;;6.37;4.90;;;17.30;87.20;;;;;;5071291;28;20832;-61
2023/05/30 00:48:42;;;;;;;12.20;5.40;;;17.30;87.70;;;;;;5067431;28;20508;-61
2023/05/30 00:51:11;;;;;;;7.27;5.40;;;17.30;88.00;;;;;;5054221;28;21340;-61
2023/05/30 00:53:41;;;;;;;6.77;4.87;;;17.20;87.70;;;;;;5061526;28;20545;-60
2023/05/30 00:56:08;;;;;;;7.50;5.17;;;17.20;87.80;;;;;;5070593;28;20471;-60
2023/05/30 00:58:37;;;;;;;9.40;5.50;;;17.20;87.80;;;;;;5067613;28;20923;-61
2023/05/30 01:01:06;;;;;;;9.10;4.73;;;17.10;88.00;;;;;;5049616;28;20572;-60
2023/05/30 01:03:33;;;;;;;8.73;4.80;;;17.10;87.90;;;;;;5059496;28;20861;-61
2023/05/30 01:06:01;;;;;;;9.50;4.53;;;17.10;88.20;;;;;;5063430;28;20483;-60
2023/05/30 01:08:28;;;;;;;8.17;5.40;;;17.10;88.10;;;;;;5063165;28;20531;-61
2023/05/30 01:11:03;;;;;;;10.33;5.70;;;17.10;88.00;;;;;;5044190;28;20590;-61
2023/05/30 01:13:42;;;;;;;10.50;4.97;;;17.10;88.00;;;;;;5062586;28;20573;-61
2023/05/30 01:16:15;;;;;;;9.93;4.90;;;17.10;88.20;;;;;;5058345;28;20503;-61
2023/05/30 01:18:47;;;;;;;8.57;5.67;;;17.00;88.70;;;;;;5070299;28;20540;-60
2023/05/30 01:21:17;;;;;;;7.23;4.87;;;17.00;88.00;;;;;;5064137;28;20482;-60
2023/05/30 01:24:05;;;;;;;12.43;4.80;;;17.00;88.00;;;;;;5038653;28;20944;-60
2023/05/30 01:26:49;;;;;;;12.90;5.10;;;17.00;87.90;;;;;;5063696;28;20584;-60
2023/05/30 01:29:23;;;;;;;13.00;4.83;;;16.90;87.30;;;;;;5072189;28;20486;-60
2023/05/30 01:31:50;;;;;;;6.40;5.23;;;16.90;88.00;;;;;;5054067;28;20571;-59
2023/05/30 01:34:17;;;;;;;8.10;4.60;;;16.90;87.50;;;;;;5074073;28;20901;-60
2023/05/30 01:36:44;;;;;;;12.10;4.40;;;16.90;87.50;;;;;;5053299;28;20478;-60
2023/05/30 01:39:11;;;;;;;15.27;5.47;;;16.90;87.20;;;;;;5070906;28;20486;-60
2023/05/30 01:41:46;;;;;;;10.77;4.60;;;16.90;87.20;;;;;;5070048;28;20486;-60
2023/05/30 01:44:25;;;;;;;12.73;4.77;;;16.90;87.20;;;;;;5067773;28;20903;-60
2023/05/30 01:47:04;;;;;;;12.47;5.17;;;16.80;87.20;;;;;;5023553;28;20980;-60
2023/05/30 01:49:38;;;;;;;8.90;4.17;;;16.80;87.00;;;;;;5047042;28;20931;-60
2023/05/30 01:52:12;;;;;;;11.53;5.57;;;16.80;87.20;;;;;;5064781;28;20973;-60
2023/05/30 01:54:42;;;;;;;14.73;5.30;;;16.80;87.50;;;;;;5056783;28;20486;-60
2023/05/30 01:57:13;;;;;;;9.97;7.40;;;16.70;87.10;;;;;;5072843;28;20479;-61
2023/05/30 01:59:42;;;;;;;11.10;5.33;;;16.70;87.10;;;;;;5060968;28;20474;-60
2023/05/30 02:02:10;;;;;;;10.77;5.50;;;16.70;87.10;;;;;;5065868;28;20911;-61
2023/05/30 02:04:38;;;;;;;7.47;4.20;;;16.70;87.10;;;;;;5056892;28;20857;-61
2023/05/30 02:07:05;;;;;;;10.13;4.73;;;16.60;87.00;;;;;;5073296;28;20675;-61
2023/05/30 02:09:32;;;;;;;14.53;5.03;;;16.60;86.70;;;;;;5068817;28;20475;-61
2023/05/30 02:12:01;;;;;;;8.30;4.10;;;16.60;86.90;;;;;;5045236;28;20477;-60
2023/05/30 02:14:28;;;;;;;7.73;4.43;;;16.60;86.50;;;;;;5063444;28;20474;-61
2023/05/30 02:16:59;;;;;;;12.83;6.03;;;16.60;87.00;;;;;;5066472;28;20838;-61
2023/05/30 02:19:26;;;;;;;9.70;4.73;;;16.60;87.00;;;;;;5070624;28;20804;-61
2023/05/30 02:21:53;;;;;;;8.10;4.50;;;17.20;87.90;;;;;;5068200;28;20491;-61
2023/05/30 02:24:21;;;;;;;11.33;5.00;;;16.60;87.40;;;;;;5070837;28;20481;-60
2023/05/30 02:26:48;;;;;;;7.50;4.40;;;16.50;87.10;;;;;;5069913;28;20478;-60
2023/05/30 02:29:15;;;;;;;14.33;4.77;;;16.50;87.30;;;;;;5067555;28;20484;-60
2023/05/30 02:31:41;;;;;;;12.30;4.70;;;16.50;87.20;;;;;;5073271;28;20473;-60
2023/05/30 02:34:10;;;;;;;12.07;4.97;;;16.50;87.30;;;;;;5060179;28;20550;-62
2023/05/30 02:36:38;;;;;;;5.67;4.13;;;16.50;87.10;;;;;;5081716;28;21389;-62
2023/05/30 02:39:07;;;;;;;13.17;4.80;;;16.50;86.80;;;;;;5062500;28;20491;-60
2023/05/30 02:41:36;;;;;;;12.70;4.60;;;16.50;87.20;;;;;;5072528;28;20565;-60
2023/05/30 02:44:03;;;;;;;7.50;4.73;;;16.40;86.70;;;;;;5065936;28;20552;-59
2023/05/30 02:46:30;;;;;;;7.83;4.40;;;16.40;86.80;;;;;;5072559;28;20974;-59
2023/05/30 02:48:57;;;;;;;9.27;4.17;;;16.40;86.90;;;;;;5069578;28;20484;-60
2023/05/30 02:51:25;;;;;;;9.27;4.93;;;16.40;86.90;;;;;;5072885;28;20486;-59
2023/05/30 02:53:53;;;;;;;13.10;4.83;;;16.40;87.20;;;;;;5068776;28;20482;-60
2023/05/30 02:56:22;;;;;;;18.97;5.40;;;16.30;86.60;;;;;;5066528;28;20501;-60
2023/05/30 02:58:49;;;;;;;7.37;4.60;;;16.30;87.20;;;;;;5039644;28;20466;-60
2023/05/30 03:01:17;;;;;;;7.23;4.43;;;16.30;87.20;;;;;;5061285;28;20479;-60
2023/05/30 03:03:44;;;;;;;10.20;5.23;;;16.40;87.20;;;;;;5063607;28;20485;-60
2023/05/30 03:06:12;;;;;;;8.03;5.00;;;16.40;87.20;;;;;;5081501;28;20794;-60
2023/05/30 03:08:42;;;;;;;10.13;4.30;;;16.30;86.70;;;;;;5070154;28;21045;-60
2023/05/30 03:11:11;;;;;;;11.23;5.10;;;16.30;87.20;;;;;;5066432;28;20740;-60
2023/05/30 03:13:39;;;;;;;8.93;5.30;;;16.30;87.30;;;;;;5066871;28;20505;-60
2023/05/30 03:16:06;;;;;;;11.10;4.30;;;16.20;87.00;;;;;;5067479;28;20472;-60
2023/05/30 03:18:33;;;;;;;12.13;5.60;;;16.20;87.00;;;;;;5064410;28;20485;-60
2023/05/30 03:21:00;;;;;;;8.83;5.40;;;16.10;86.70;;;;;;5070539;28;20515;-60
2023/05/30 03:23:27;;;;;;;5.83;4.07;;;16.10;87.00;;;;;;5078287;28;20862;-60
2023/05/30 03:25:55;;;;;;;9.53;4.90;;;16.10;87.10;;;;;;5065317;28;20596;-60
2023/05/30 03:28:22;;;;;;;12.50;5.03;;;16.10;86.90;;;;;;5067137;28;20852;-60
2023/05/30 03:30:49;;;;;;;7.07;4.00;;;16.10;86.90;;;;;;5052359;28;20485;-60
2023/05/30 03:33:17;;;;;;;7.47;5.50;;;16.00;86.80;;;;;;5069377;28;20475;-60
2023/05/30 03:35:44;;;;;;;6.40;4.20;;;16.00;87.00;;;;;;5064383;28;20489;-60
2023/05/30 03:38:11;;;;;;;11.97;5.93;;;16.00;87.00;;;;;;5062862;28;20527;-60
2023/05/30 03:40:37;;;;;;;10.30;5.00;;;15.90;86.60;;;;;;5071336;28;20536;-60
2023/05/30 03:43:06;;;;;;;12.97;5.13;;;15.80;87.10;;;;;;5061929;28;20475;-60
2023/05/30 03:45:32;;;;;;;7.90;4.30;;;15.80;86.80;;;;;;5065374;28;20478;-60
2023/05/30 03:47:59;;;;;;;11.60;4.60;;;15.80;87.20;;;;;;5060640;28;21182;-60
2023/05/30 03:50:26;;;;;;;5.87;3.70;;;15.70;87.40;;;;;;5069017;28;20475;-60
2023/05/30 03:52:53;;;;;;;16.40;4.83;;;15.70;87.10;;;;;;5061738;28;20567;-60
2023/05/30 03:55:20;;;;;;;8.90;4.70;;;15.70;87.20;;;;;;5047021;28;20481;-60
2023/05/30 03:57:47;;;;;;;7.90;4.43;;;15.70;86.80;;;;;;5075750;28;20503;-60
2023/05/30 04:00:16;;;;;;;12.67;4.63;;;15.70;86.80;;;;;;5059217;28;20477;-60
2023/05/30 04:02:43;;;;;;;9.67;4.93;;;15.60;86.60;;;;;;5070246;28;20604;-60
2023/05/30 04:05:10;;;;;;;9.67;4.40;;;15.60;86.60;;;;;;5075770;28;20562;-60
2023/05/30 04:07:37;;;;;;;7.73;4.20;;;15.60;86.60;;;;;;5071216;28;21052;-60
2023/05/30 04:10:04;;;;;;;18.67;4.53;;;15.60;86.10;;;;;;5051626;28;20489;-60
2023/05/30 04:12:30;;;;;;;12.07;4.13;;;15.50;85.50;;;;;;5054055;28;20478;-60
2023/05/30 04:14:57;;;;;;;9.80;4.43;;;15.50;86.20;;;;;;5059446;28;20924;-60
2023/05/30 04:17:26;;;;;;;8.80;4.33;;;15.60;86.30;;;;;;5069212;28;20476;-59
2023/05/30 04:19:53;;;;;;;10.70;4.53;;;15.60;86.40;;;;;;5051012;28;20481;-59
2023/05/30 04:22:20;;;;;;;9.97;4.60;;;15.60;86.50;;;;;;5070309;28;20709;-59
2023/05/30 04:24:47;;;;;;;10.40;4.37;;;15.60;85.90;;;;;;5050273;28;20499;-59
2023/05/30 04:27:17;;;;;;;15.63;5.63;;;15.70;86.60;;;;;;5068246;28;20478;-59
2023/05/30 04:29:46;;;;;;;7.60;4.70;;;15.60;86.10;;;;;;5052308;28;21348;-59
2023/05/30 04:32:12;;;;;;;10.40;3.83;;;15.60;85.70;;;;;;5055173;28;20888;-60
2023/05/30 04:34:41;;;;;;;9.90;5.07;;;15.70;85.50;;;;;;5038768;28;20486;-60
2023/05/30 04:37:07;;;;;;;9.70;3.77;;;15.70;85.90;;;;;;5035554;28;20469;-60
2023/05/30 04:39:35;;;;;;;10.33;4.40;;;15.70;85.70;;;;;;5061019;28;20487;-59
2023/05/30 04:42:05;;;;;;;17.37;4.20;;;15.80;85.90;;;;;;5063054;28;20478;-60
2023/05/30 04:44:38;;;;;;;6.77;4.07;;;15.80;84.80;;;;;;5063890;28;20668;-60
2023/05/30 04:47:07;;;;;;;15.83;4.33;;;15.90;85.30;;;;;;5055785;28;20480;-61
2023/05/30 04:49:34;;;;;;;7.90;4.03;;;15.90;84.80;;;;;;5033762;28;20531;-61
2023/05/30 04:52:03;;;;;;;7.47;4.00;;;16.00;85.10;;;;;;5067088;28;20473;-60
2023/05/30 04:54:30;;;;;;;11.83;4.93;;;16.00;84.50;;;;;;5064055;28;20863;-60
2023/05/30 04:56:57;;;;;;;14.23;4.50;;;16.00;84.20;;;;;;5064681;28;20472;-61
2023/05/30 04:59:24;;;;;;;8.33;5.13;;;16.00;84.50;;;;;;5063669;28;20475;-60
2023/05/30 05:01:52;;;;;;;9.47;4.40;;;16.10;84.80;;;;;;5065638;28;20546;-60
2023/05/30 05:04:19;;;;;;;12.10;4.63;;;16.10;84.20;;;;;;5067231;28;21405;-61
2023/05/30 05:06:45;;;;;;;10.13;4.80;;;16.10;84.20;;;;;;5056810;28;20508;-60
2023/05/30 05:09:14;;;;;;;7.73;4.13;;;16.10;83.30;;;;;;5067602;28;20492;-61
2023/05/30 05:11:40;;;;;;;6.17;3.83;;;16.10;83.80;;;;;;5057811;28;20528;-61
2023/05/30 05:14:07;;;;;;;6.50;3.50;;;16.10;84.20;;;;;;5064939;28;20475;-59
2023/05/30 05:16:34;;;;;;;10.60;4.67;;;16.20;84.40;;;;;;5065400;28;20473;-60
2023/05/30 05:19:01;;;;;;;16.03;4.63;;;16.30;83.70;;;;;;5051076;28;20483;-60
2023/05/30 05:21:28;;;;;;;13.27;4.67;;;16.30;83.80;;;;;;5062347;28;20478;-60
2023/05/30 05:23:54;;;;;;;9.60;3.83;;;16.40;84.60;;;;;;5065338;28;20489;-60
2023/05/30 05:26:23;;;;;;;6.17;4.60;;;16.50;84.20;;;;;;5064196;28;20542;-60
2023/05/30 05:28:50;;;;;;;10.33;4.30;;;16.60;83.90;;;;;;5072775;28;20478;-60
2023/05/30 05:31:17;;;;;;;6.20;3.93;;;16.70;84.50;;;;;;5068858;28;20553;-59
2023/05/30 05:33:44;;;;;;;6.87;3.53;;;16.70;83.00;;;;;;5059275;28;20695;-60
2023/05/30 05:36:10;;;;;;;7.60;3.80;;;16.80;83.10;;;;;;5070527;28;20474;-60
2023/05/30 05:38:37;;;;;;;13.53;4.10;;;16.80;82.40;;;;;;5065380;28;20566;-60
2023/05/30 05:41:04;;;;;;;7.10;4.20;;;16.80;82.70;;;;;;5051901;28;20489;-60
2023/05/30 05:43:32;;;;;;;10.80;3.93;;;16.70;82.20;;;;;;5060381;28;20493;-59
2023/05/30 05:45:59;;;;;;;7.10;3.47;;;16.70;82.30;;;;;;5064426;28;20990;-59
2023/05/30 05:48:26;;;;;;;7.97;3.73;;;16.80;82.80;;;;;;5047173;28;20479;-60
2023/05/30 05:50:53;;;;;;;12.03;4.00;;;16.80;82.70;;;;;;5054756;28;20478;-60
2023/05/30 05:53:20;;;;;;;8.93;5.00;;;16.90;82.30;;;;;;5057201;28;20498;-60
2023/05/30 05:55:48;;;;;;;8.33;4.70;;;16.90;82.90;;;;;;5031381;28;20517;-60
2023/05/30 05:58:15;;;;;;;11.20;4.20;;;17.00;82.60;;;;;;5058094;28;20505;-60
2023/05/30 06:00:43;;;;;;;7.10;4.10;;;17.00;83.30;;;;;;5072234;28;20850;-60
2023/05/30 06:03:10;;;;;;;13.50;3.70;;;17.10;82.40;;;;;;5056267;28;20488;-60
2023/05/30 06:05:36;;;;;;;6.30;3.20;;;17.20;82.20;;;;;;5059029;28;20480;-60
2023/05/30 06:08:03;;;;;;;17.63;4.30;;;17.30;81.40;;;;;;5052890;28;20472;-60
2023/05/30 06:10:30;;;;;;;7.37;3.60;;;17.30;83.20;;;;;;5065830;28;20477;-60
2023/05/30 06:12:57;;;;;;;6.43;3.63;;;17.30;81.60;;;;;;5055126;28;20482;-60
2023/05/30 06:15:24;;;;;;;11.43;4.13;;;17.30;82.20;;;;;;5063267;28;20478;-60
2023/05/30 06:17:53;;;;;;;10.00;3.73;;;17.50;81.80;;;;;;5069816;28;20485;-60
2023/05/30 06:20:19;;;;;;;13.40;4.10;;;17.60;81.90;;;;;;5057692;28;21049;-60
2023/05/30 06:22:46;;;;;;;7.93;3.63;;;17.70;81.30;;;;;;5053182;28;20501;-60
2023/05/30 06:25:13;;;;;;;8.17;3.80;;;17.90;81.20;;;;;;5052711;28;20510;-61
2023/05/30 06:27:40;;;;;;;9.00;3.40;;;18.00;82.20;;;;;;5059075;28;20560;-60
2023/05/30 06:30:08;;;;;;;10.47;3.90;;;18.10;80.90;;;;;;5052919;28;21044;-61
2023/05/30 06:32:35;;;;;;;6.03;3.97;;;18.20;79.60;;;;;;5064303;28;20476;-61
2023/05/30 06:35:03;;;;;;;5.20;3.50;;;18.20;81.70;;;;;;5058793;28;20750;-60
2023/05/30 06:37:30;;;;;;;8.47;3.13;;;18.40;80.40;;;;;;5070434;28;20490;-60
2023/05/30 06:39:57;;;;;;;11.27;3.53;;;18.50;81.20;;;;;;5057251;28;20518;-60
2023/05/30 06:42:23;;;;;;;9.47;4.23;;;18.60;80.20;;;;;;5057278;28;20481;-60
2023/05/30 06:44:50;;;;;;;9.13;3.67;;;18.70;81.60;;;;;;5054456;28;21015;-60
2023/05/30 06:47:17;;;;;;;9.87;4.40;;;18.70;79.60;;;;;;5068926;28;20469;-60
2023/05/30 06:49:44;;;;;;;12.77;4.83;;;18.80;80.80;;;;;;5058770;28;20545;-60
2023/05/30 06:52:12;;;;;;;9.53;3.43;;;18.90;80.40;;;;;;5078670;28;20593;-60
2023/05/30 06:54:39;;;;;;;14.77;4.43;;;18.90;79.30;;;;;;5061095;28;20502;-60
2023/05/30 06:57:07;;;;;;;7.67;3.80;;;18.90;78.70;;;;;;5056703;28;20509;-60
2023/05/30 06:59:34;;;;;;;10.17;3.80;;;19.00;78.90;;;;;;5068619;28;20975;-60
2023/05/30 07:02:01;;;;;;;9.53;3.93;;;19.10;80.50;;;;;;5056827;28;20595;-59
2023/05/30 07:04:28;;;;;;;8.73;3.30;;;19.30;79.60;;;;;;5063366;28;20474;-60
2023/05/30 07:06:55;;;;;;;6.10;4.00;;;19.40;78.80;;;;;;5057539;28;20471;-61
2023/05/30 07:09:23;;;;;;;9.83;4.33;;;19.50;80.00;;;;;;5055587;28;21073;-61
2023/05/30 07:11:51;;;;;;;8.13;3.43;;;19.60;79.30;;;;;;5069436;28;20490;-61
2023/05/30 07:14:18;;;;;;;10.27;3.50;;;19.70;78.10;;;;;;5053096;28;20479;-61
2023/05/30 07:16:45;;;;;;;8.40;4.37;;;19.70;77.50;;;;;;5062948;28;20905;-61
2023/05/30 07:19:13;;;;;;;12.40;3.77;;;19.70;78.30;;;;;;5038404;28;20843;-61
2023/05/30 07:21:40;;;;;;;10.70;3.80;;;19.80;78.30;;;;;;5050709;28;20491;-61
2023/05/30 07:24:07;;;;;;;7.47;3.33;;;19.90;78.40;;;;;;5065311;28;20492;-61
2023/05/30 07:26:36;;;;;;;8.97;3.97;;;20.00;77.10;;;;;;5067583;28;20535;-60
2023/05/30 07:29:03;;;;;;;9.60;3.90;;;20.30;77.00;;;;;;5064924;28;20481;-61
2023/05/30 07:31:30;;;;;;;7.83;3.77;;;20.40;77.10;;;;;;5057260;28;20474;-61
2023/05/30 07:33:57;;;;;;;9.73;3.47;;;20.60;77.40;;;;;;5049035;28;20479;-61
2023/05/30 07:36:24;;;;;;;28.77;5.03;;;20.80;75.10;;;;;;5065202;28;20522;-61
2023/05/30 07:38:51;;;;;;;8.33;3.47;;;20.90;75.00;;;;;;5057257;28;20873;-61
2023/05/30 07:41:18;;;;;;;8.40;3.40;;;21.00;76.80;;;;;;5069453;28;20481;-61
2023/05/30 07:43:46;;;;;;;9.83;3.60;;;21.10;75.90;;;;;;5047698;28;20482;-61
2023/05/30 07:46:13;;;;;;;10.17;4.60;;;21.10;73.70;;;;;;5065547;28;20604;-61
2023/05/30 07:48:40;;;;;;;15.07;3.23;;;21.10;74.10;;;;;;5052153;28;20505;-61
2023/05/30 07:51:08;;;;;;;8.37;3.27;;;21.30;74.80;;;;;;5065914;28;20474;-61
2023/05/30 07:53:36;;;;;;;7.40;2.97;;;21.30;75.60;;;;;;5062627;28;20905;-61
2023/05/30 07:56:03;;;;;;;11.00;3.33;;;21.50;75.40;;;;;;5069206;28;20759;-60
2023/05/30 07:58:30;;;;;;;5.57;3.47;;;21.50;74.80;;;;;;5049829;28;20970;-61
2023/05/30 08:00:58;;;;;;;5.70;3.77;;;21.60;74.10;;;;;;5071469;28;20466;-61
2023/05/30 08:03:25;;;;;;;7.67;3.90;;;21.80;74.40;;;;;;5050473;28;20773;-61
2023/05/30 08:05:52;;;;;;;9.97;4.07;;;22.00;73.80;;;;;;5060322;28;20491;-61
2023/05/30 08:08:19;;;;;;;11.97;3.60;;;22.10;75.40;;;;;;5061075;28;20471;-61
2023/05/30 08:10:46;;;;;;;6.43;4.00;;;22.10;72.70;;;;;;5049683;28;21065;-61
2023/05/30 08:13:13;;;;;;;10.13;4.20;;;22.20;72.80;;;;;;5074795;28;20716;-61
2023/05/30 08:15:41;;;;;;;7.93;3.93;;;22.20;72.50;;;;;;5073364;28;20475;-61
2023/05/30 08:18:09;;;;;;;7.70;3.97;;;22.00;73.60;;;;;;5061936;28;20486;-61
2023/05/30 08:20:36;;;;;;;10.13;3.50;;;22.00;73.30;;;;;;5053462;28;20752;-60
2023/05/30 08:23:03;;;;;;;4.80;3.10;;;22.00;73.30;;;;;;5072152;28;20484;-60
2023/05/30 08:25:32;;;;;;;10.90;4.00;;;22.30;73.90;;;;;;5057651;28;20812;-60
2023/05/30 08:27:59;;;;;;;4.73;3.27;;;22.40;74.20;;;;;;5071966;28;20483;-60
2023/05/30 08:30:26;;;;;;;10.70;4.73;;;22.60;74.30;;;;;;5064036;28;20689;-61
2023/05/30 08:32:54;;;;;;;14.20;3.90;;;22.80;73.00;;;;;;5055819;28;20499;-61
2023/05/30 08:35:22;;;;;;;10.50;4.20;;;22.80;71.30;;;;;;5067940;28;20476;-61
2023/05/30 08:37:49;;;;;;;7.10;4.27;;;22.90;71.70;;;;;;5063698;28;20488;-60
2023/05/30 08:40:16;;;;;;;11.33;4.00;;;23.00;73.00;;;;;;5068403;28;20479;-62
2023/05/30 08:42:43;;;;;;;11.27;4.20;;;23.10;71.50;;;;;;5068433;28;20481;-61
2023/05/30 08:45:11;;;;;;;8.13;3.80;;;23.00;71.10;;;;;;5061445;28;20800;-61
2023/05/30 08:47:39;;;;;;;6.90;3.60;;;23.10;72.20;;;;;;5057034;28;20482;-61
2023/05/30 08:50:08;;;;;;;9.73;5.00;;;23.00;72.00;;;;;;5062131;28;20478;-61
2023/05/30 08:52:37;;;;;;;11.00;4.00;;;22.90;71.90;;;;;;5070375;28;20531;-61
2023/05/30 08:55:09;;;;;;;8.40;3.80;;;23.00;72.00;;;;;;5063770;28;20776;-61
2023/05/30 08:57:42;;;;;;;7.83;3.60;;;23.10;72.80;;;;;;5067422;28;20491;-61
2023/05/30 09:00:11;;;;;;;12.60;4.60;;;23.10;72.40;;;;;;5058328;27;20487;-62
2023/05/30 09:02:39;;;;;;;9.10;4.30;;;23.10;71.90;;;;;;5073147;28;20488;-61
2023/05/30 09:05:07;;;;;;;7.50;3.80;;;23.40;74.30;;;;;;5062838;28;20474;-61
2023/05/30 09:07:37;;;;;;;11.37;3.87;;;23.60;72.80;;;;;;5063165;28;21024;-61
2023/05/30 09:10:05;;;;;;;7.00;3.67;;;23.80;73.10;;;;;;5065504;28;20476;-62
2023/05/30 09:12:32;;;;;;;8.73;3.90;;;23.90;70.60;;;;;;5067427;28;20492;-61
2023/05/30 09:14:59;;;;;;;14.63;4.00;;;24.00;71.90;;;;;;5068097;28;20678;-61
2023/05/30 09:17:26;;;;;;;6.33;3.63;;;24.20;70.90;;;;;;5048494;28;21226;-62
2023/05/30 09:19:53;;;;;;;9.70;3.37;;;24.30;71.30;;;;;;5075415;28;20491;-61
2023/05/30 09:22:21;;;;;;;6.37;4.73;;;24.40;70.30;;;;;;5046384;28;20481;-61
2023/05/30 09:25:00;;;;;;;5.70;3.87;;;24.40;72.10;;;;;;5081688;28;20864;-61
2023/05/30 09:27:28;;;;;;;9.70;4.27;;;24.40;71.40;;;;;;5066353;28;20473;-62
2023/05/30 09:29:56;;;;;;;15.70;3.90;;;24.50;69.20;;;;;;5059147;28;20483;-61
2023/05/30 09:32:28;;;;;;;11.70;4.40;;;24.60;70.80;;;;;;5076619;28;20485;-61
2023/05/30 09:34:56;;;;;;;16.97;3.97;;;24.60;69.00;;;;;;5063459;28;20536;-61
2023/05/30 09:37:24;;;;;;;22.27;4.50;;;24.70;70.00;;;;;;5067813;28;20487;-61
2023/05/30 09:40:07;;;;;;;13.40;4.20;;;24.80;71.90;;;;;;5033269;28;20485;-61
2023/05/30 09:42:40;;;;;;;8.40;3.53;;;24.90;73.50;;;;;;5057533;28;20475;-61
2023/05/30 09:45:10;;;;;;;9.23;3.87;;;24.90;71.30;;;;;;5054992;28;20568;-61
2023/05/30 09:47:41;;;;;;;10.50;4.67;;;25.00;70.60;;;;;;5067225;28;20481;-61
2023/05/30 09:50:11;;;;;;;11.37;4.33;;;25.10;71.20;;;;;;5071246;28;21047;-61
2023/05/30 09:52:38;;;;;;;7.87;4.53;;;24.90;69.30;;;;;;5066210;28;20492;-61
2023/05/30 09:55:07;;;;;;;9.17;4.30;;;25.00;69.10;;;;;;5062443;28;20500;-61
2023/05/30 09:57:36;;;;;;;10.83;3.93;;;25.10;70.40;;;;;;5068630;28;20469;-61
2023/05/30 10:00:10;;;;;;;11.57;4.80;;;25.20;70.90;;;;;;5062774;28;21048;-61
2023/05/30 10:02:39;;;;;;;9.57;4.30;;;25.30;69.50;;;;;;5057725;28;20482;-61
2023/05/30 10:05:06;;;;;;;8.77;4.53;;;25.50;69.50;;;;;;5071706;28;20501;-62
2023/05/30 10:07:33;;;;;;;8.73;3.87;;;25.50;70.10;;;;;;5065093;28;20490;-62
2023/05/30 10:10:01;;;;;;;6.70;4.10;;;25.70;69.50;;;;;;5056047;28;20923;-62
2023/05/30 10:12:31;;;;;;;10.07;4.00;;;25.50;66.30;;;;;;5059444;28;20477;-61
2023/05/30 10:14:58;;;;;;;7.20;3.43;;;25.30;68.60;;;;;;5057850;28;20525;-62
2023/05/30 10:17:31;;;;;;;7.67;4.63;;;25.40;68.40;;;;;;5034250;28;20488;-62
2023/05/30 10:20:02;;;;;;;10.57;4.17;;;25.40;70.20;;;;;;5078048;28;20499;-62
2023/05/30 10:22:32;;;;;;;7.07;4.77;;;25.30;68.30;;;;;;5066390;28;20481;-61
2023/05/30 10:25:02;;;;;;;6.73;4.20;;;25.30;70.20;;;;;;5055980;28;20984;-61
2023/05/30 10:27:35;;;;;;;8.00;3.90;;;25.30;70.20;;;;;;5070079;28;20574;-61
2023/05/30 10:30:07;;;;;;;6.03;4.23;;;25.40;68.30;;;;;;5059830;28;20475;-61
2023/05/30 10:32:38;;;;;;;8.03;3.90;;;25.50;68.40;;;;;;5063703;28;20939;-61
2023/05/30 10:35:08;;;;;;;13.37;5.80;;;25.50;67.30;;;;;;5067207;28;20572;-61
2023/05/30 10:37:37;;;;;;;12.50;3.70;;;25.40;69.20;;;;;;5072018;28;20750;-61
2023/05/30 10:40:29;;;;;;;9.90;3.70;;;25.40;67.90;;;;;;5070160;28;20502;-61
2023/05/30 10:43:07;;;;;;;11.37;4.20;;;25.30;69.80;;;;;;5058793;28;20952;-61
2023/05/30 10:45:43;;;;;;;8.30;4.20;;;25.30;68.80;;;;;;5066671;28;21013;-61
2023/05/30 10:48:22;;;;;;;9.53;5.60;;;25.50;68.60;;;;;;5060236;28;20486;-62
2023/05/30 10:50:52;;;;;;;7.73;4.30;;;25.50;69.00;;;;;;5069749;28;20472;-62
2023/05/30 10:53:19;;;;;;;9.10;3.70;;;25.60;69.10;;;;;;5068663;28;20480;-62
2023/05/30 10:55:47;;;;;;;13.20;4.33;;;25.60;69.00;;;;;;5064927;28;20526;-62
2023/05/30 10:58:43;;;;;;;7.90;4.47;;;25.60;67.60;;;;;;5063971;28;20480;-62
2023/05/30 11:01:27;;;;;;;8.23;3.30;;;25.80;69.90;;;;;;5003515;28;20690;-62
2023/05/30 11:04:02;;;;;;;10.97;4.10;;;25.70;67.20;;;;;;5050908;28;21030;-62
2023/05/30 11:06:31;;;;;;;12.03;6.10;;;25.90;67.10;;;;;;5083798;28;20507;-62
2023/05/30 11:09:06;;;;;;;6.83;3.67;;;25.90;67.60;;;;;;5062932;28;20500;-62
2023/05/30 11:11:39;;;;;;;7.90;3.60;;;25.90;68.80;;;;;;5065221;28;20493;-62
2023/05/30 11:14:08;;;;;;;6.43;4.20;;;25.90;66.50;;;;;;5047656;28;20480;-62
2023/05/30 11:16:49;;;;;;;6.97;4.07;;;26.00;70.90;;;;;;5065158;28;20798;-62
2023/05/30 11:19:15;;;;;;;10.47;4.37;;;26.00;67.90;;;;;;5060410;28;20698;-62
2023/05/30 11:21:59;;;;;;;10.60;3.60;;;26.00;69.30;;;;;;5063508;28;20492;-62
2023/05/30 11:24:27;;;;;;;6.70;4.53;;;26.10;69.00;;;;;;5058943;28;21108;-62
2023/05/30 11:26:56;;;;;;;9.13;4.20;;;26.10;68.00;;;;;;5074001;28;21229;-62
2023/05/30 11:29:35;;;;;;;12.47;5.20;;;26.10;67.70;;;;;;5064621;28;20590;-62
2023/05/30 11:32:02;;;;;;;4.00;2.87;;;26.10;68.10;;;;;;5053623;28;21225;-62
2023/05/30 11:34:29;;;;;;;8.97;4.00;;;26.20;67.40;;;;;;5062722;28;20481;-62
2023/05/30 11:36:57;;;;;;;6.77;4.23;;;26.10;66.20;;;;;;5064679;28;20858;-62
2023/05/30 11:39:25;;;;;;;5.90;4.13;;;26.10;65.80;;;;;;5059707;28;20534;-62
2023/05/30 11:41:52;;;;;;;6.80;4.60;;;26.10;65.90;;;;;;5066872;28;20470;-62
2023/05/30 11:44:19;;;;;;;7.73;3.47;;;26.10;66.00;;;;;;5062869;28;20874;-62
2023/05/30 11:46:58;;;;;;;7.83;4.13;;;26.20;66.90;;;;;;5061638;28;21061;-62
2023/05/30 11:49:25;;;;;;;14.17;3.93;;;26.20;67.10;;;;;;5059604;28;20579;-62
2023/05/30 11:51:52;;;;;;;8.33;3.60;;;26.20;66.90;;;;;;5057728;28;20483;-62
2023/05/30 11:54:19;;;;;;;8.40;4.83;;;26.20;68.70;;;;;;5031507;28;20931;-62
2023/05/30 11:56:47;;;;;;;9.70;4.50;;;26.20;68.10;;;;;;5055853;28;20481;-62
2023/05/30 11:59:18;;;;;;;11.67;4.27;;;26.20;63.30;;;;;;5059903;28;20642;-62
2023/05/30 12:01:52;;;;;;;13.07;4.80;;;26.20;64.60;;;;;;5061545;28;20483;-62
2023/05/30 12:04:22;;;;;;;18.07;4.70;;;26.10;65.80;;;;;;5060224;28;20481;-62
2023/05/30 12:06:48;;;;;;;17.20;4.50;;;26.20;66.30;;;;;;5058141;28;20477;-62
2023/05/30 12:09:16;;;;;;;6.63;4.20;;;26.20;64.80;;;;;;5047742;28;20490;-62
2023/05/30 12:11:56;;;;;;;6.73;4.03;;;26.20;64.00;;;;;;5048071;28;20541;-62
2023/05/30 12:14:29;;;;;;;7.50;3.77;;;26.10;65.60;;;;;;5044614;28;20488;-62
2023/05/30 12:16:57;;;;;;;6.43;4.20;;;26.30;65.70;;;;;;5062273;28;20493;-62
2023/05/30 12:19:30;;;;;;;7.87;3.90;;;26.20;65.50;;;;;;5066020;28;21036;-62
2023/05/30 12:21:57;;;;;;;8.03;3.67;;;26.40;67.70;;;;;;5037068;28;20483;-62
2023/05/30 12:24:25;;;;;;;7.47;3.77;;;26.20;65.30;;;;;;5048764;28;20482;-62
2023/05/30 12:26:55;;;;;;;10.03;4.47;;;26.30;65.70;;;;;;5069338;28;20535;-62
2023/05/30 12:29:26;;;;;;;5.43;3.87;;;26.30;63.50;;;;;;5051261;28;20777;-62
2023/05/30 12:31:54;;;;;;;13.37;4.67;;;26.20;64.00;;;;;;5075810;28;20478;-62
2023/05/30 12:34:22;;;;;;;13.87;4.90;;;26.30;64.80;;;;;;5054387;28;20568;-62
2023/05/30 12:36:50;;;;;;;7.57;3.50;;;26.40;64.60;;;;;;5081084;28;20484;-62
2023/05/30 12:39:17;;;;;;;10.57;4.10;;;26.40;65.00;;;;;;5051714;28;20481;-62
2023/05/30 12:41:45;;;;;;;11.40;4.57;;;26.50;64.90;;;;;;5064222;28;20782;-62
2023/05/30 12:44:18;;;;;;;6.00;3.80;;;26.50;62.80;;;;;;5037297;28;20509;-62
2023/05/30 12:46:45;;;;;;;4.10;3.20;;;26.50;62.70;;;;;;5065033;28;20557;-62
2023/05/30 12:49:12;;;;;;;8.03;3.50;;;26.40;61.50;;;;;;5065658;28;20485;-63
2023/05/30 12:51:40;;;;;;;7.63;4.10;;;26.50;63.60;;;;;;5043862;28;20493;-62